Time;durP1;ratioP1;P1;durP2;ratioP2;P2;SDS_P1;SDS_P2;PMS_P1;PMS_P2;Temp;Humidity;BMP_temperature;BMP_pressure;BME280_temperature;BME280_humidity;BME280_pressure;Samples;Min_cycle;Max_cycle;Signal;HPM_P1;HPM_P2
2022/12/17 13:06:42;;;;;;;27.23;14.75;;;-1.60;58.80;;;;;;4967871;28;46387;-63
2022/12/17 13:09:17;;;;;;;21.17;12.93;;;-1.60;58.80;;;;;;4969102;28;46581;-62
2022/12/17 13:11:45;;;;;;;27.48;14.45;;;-1.60;58.70;;;;;;4971271;28;46456;-63
2022/12/17 13:14:33;;;;;;;30.27;12.98;;;-1.50;58.90;;;;;;4969476;28;47193;-62
2022/12/17 13:17:07;;;;;;;27.98;15.13;;;-1.50;58.80;;;;;;4968572;28;46629;-63
2022/12/17 13:19:41;;;;;;;28.25;14.55;;;-1.50;58.70;;;;;;4968821;28;46171;-63
2022/12/17 13:22:13;;;;;;;32.70;16.08;;;-1.50;58.70;;;;;;4968334;28;46362;-63
2022/12/17 13:24:39;;;;;;;36.78;18.77;;;-1.50;58.80;;;;;;4985881;28;48205;-63
2022/12/17 13:27:34;;;;;;;32.35;17.45;;;-1.60;58.80;;;;;;4967492;28;46341;-63
2022/12/17 13:30:19;;;;;;;41.55;21.20;;;-1.60;58.90;;;;;;4967959;28;46416;-62
2022/12/17 13:33:14;;;;;;;55.40;22.80;;;-1.80;59.10;;;;;;4968137;28;46401;-62
2022/12/17 13:35:59;;;;;;;116.40;40.28;;;-1.90;59.50;;;;;;4963404;28;46798;-63
2022/12/17 13:38:43;;;;;;;36.35;20.10;;;-1.90;59.70;;;;;;4971175;28;46634;-62
2022/12/17 13:41:10;;;;;;;35.60;18.88;;;-2.00;59.90;;;;;;4966259;28;46433;-63
2022/12/17 13:43:56;;;;;;;36.97;16.90;;;-2.10;60.00;;;;;;4967901;28;46488;-62
2022/12/17 13:46:42;;;;;;;28.40;15.80;;;-2.30;60.30;;;;;;4965113;28;46345;-63
2022/12/17 13:49:23;;;;;;;33.30;16.92;;;-2.30;60.60;;;;;;4964008;28;46425;-62
2022/12/17 13:52:00;;;;;;;33.42;17.63;;;-2.40;60.80;;;;;;4966912;28;46502;-63
2022/12/17 13:54:26;;;;;;;37.30;16.73;;;-2.40;62.10;;;;;;4968791;28;46229;-63
2022/12/17 13:56:53;;;;;;;34.80;17.60;;;-2.40;60.90;;;;;;4965596;28;47503;-63
2022/12/17 13:59:24;;;;;;;29.92;15.80;;;-2.40;60.50;;;;;;4966595;28;46764;-63
2022/12/17 14:01:53;;;;;;;37.67;15.73;;;-2.30;60.50;;;;;;4970237;28;46492;-63
2022/12/17 14:04:26;;;;;;;29.40;16.40;;;-2.30;60.20;;;;;;4966978;28;46457;-62
2022/12/17 14:06:55;;;;;;;33.33;18.42;;;-2.40;60.30;;;;;;4965842;28;46516;-63
2022/12/17 14:09:26;;;;;;;37.25;18.48;;;-2.40;60.30;;;;;;4966784;28;46603;-64
2022/12/17 14:14:39;;;;;;;41.95;18.38;;;-2.40;60.00;;;;;;4964483;28;46321;-63
2022/12/17 14:17:13;;;;;;;39.22;18.73;;;-2.30;59.90;;;;;;4977320;28;46491;-63
2022/12/17 14:19:39;;;;;;;36.30;17.67;;;-2.30;59.70;;;;;;4965053;28;46491;-63
2022/12/17 14:22:05;;;;;;;39.57;18.77;;;-2.30;59.70;;;;;;4970190;28;45935;-64
2022/12/17 14:24:30;;;;;;;35.80;19.00;;;-2.20;59.60;;;;;;4966677;28;45988;-62
2022/12/17 14:26:58;;;;;;;37.60;19.37;;;-2.40;59.40;;;;;;4984026;28;48224;-64
2022/12/17 14:29:27;;;;;;;36.92;18.42;;;-2.40;59.60;;;;;;4968431;28;46403;-63
2022/12/17 14:31:58;;;;;;;34.00;19.13;;;-2.60;59.60;;;;;;4971255;28;46446;-65
2022/12/17 14:34:24;;;;;;;37.30;19.55;;;-2.70;59.80;;;;;;4972490;28;46317;-65
2022/12/17 14:36:58;;;;;;;37.73;18.70;;;-2.70;59.80;;;;;;4971309;28;47009;-65
2022/12/17 14:39:31;;;;;;;33.10;18.00;;;-2.80;59.90;;;;;;4975159;28;46499;-64
2022/12/17 14:42:24;;;;;;;34.38;16.50;;;-2.90;59.80;;;;;;4971168;28;46338;-64
2022/12/17 14:44:52;;;;;;;33.05;16.45;;;-3.00;59.90;;;;;;4971894;28;46504;-63
2022/12/17 14:47:18;;;;;;;34.70;17.42;;;-3.10;60.00;;;;;;4971049;28;47438;-63
2022/12/17 14:49:52;;;;;;;38.87;19.50;;;-3.10;60.10;;;;;;4971655;28;46411;-64
2022/12/17 14:52:31;;;;;;;38.05;19.80;;;-3.20;60.30;;;;;;4974755;28;46451;-64
2022/12/17 14:54:57;;;;;;;40.90;20.60;;;-3.30;60.50;;;;;;4969931;28;46448;-64
2022/12/17 14:57:22;;;;;;;39.77;19.90;;;-3.50;60.60;;;;;;4978206;28;47962;-63
2022/12/17 14:59:49;;;;;;;42.67;21.30;;;-3.60;61.00;;;;;;4972244;28;46416;-63
2022/12/17 15:02:22;;;;;;;107.20;43.97;;;-3.70;61.20;;;;;;4977077;28;46389;-63
2022/12/17 15:04:50;;;;;;;51.28;24.17;;;-3.70;61.10;;;;;;4972450;28;46389;-63
2022/12/17 15:07:25;;;;;;;54.38;23.13;;;-3.70;61.00;;;;;;4974187;28;47568;-64
2022/12/17 15:09:52;;;;;;;68.82;29.50;;;-3.80;61.00;;;;;;4971114;28;46640;-63
2022/12/17 15:12:18;;;;;;;64.25;26.13;;;-3.90;61.10;;;;;;4971811;28;46466;-64
2022/12/17 15:14:45;;;;;;;58.28;25.35;;;-4.00;61.20;;;;;;4973411;28;46424;-62
2022/12/17 15:17:11;;;;;;;44.05;19.35;;;-4.10;61.20;;;;;;4970393;28;46509;-62
2022/12/17 15:19:38;;;;;;;233.30;104.07;;;-4.30;61.20;;;;;;4971868;28;46369;-63
2022/12/17 15:22:04;;;;;;;51.97;23.33;;;-4.40;61.50;;;;;;4971137;28;46391;-63
2022/12/17 15:24:29;;;;;;;41.40;17.58;;;-4.50;61.40;;;;;;4971348;28;45883;-62
2022/12/17 15:26:55;;;;;;;36.50;18.40;;;-4.60;61.60;;;;;;4972085;28;46642;-63
2022/12/17 15:29:23;;;;;;;47.47;21.93;;;-4.80;61.70;;;;;;4973519;28;45806;-63
2022/12/17 15:31:49;;;;;;;43.80;21.92;;;-4.90;61.90;;;;;;4971011;28;46396;-62
2022/12/17 15:34:14;;;;;;;53.20;25.63;;;-5.10;61.80;;;;;;4975809;28;45916;-64
2022/12/17 15:36:40;;;;;;;44.13;21.80;;;-5.20;61.90;;;;;;4969822;28;46998;-64
2022/12/17 15:39:07;;;;;;;55.87;21.93;;;-5.20;61.70;;;;;;4972330;28;46394;-63
2022/12/17 15:44:17;;;;;;;117.93;42.67;;;-5.40;61.40;;;;;;4970920;28;46407;-63
2022/12/17 15:46:42;;;;;;;58.07;26.83;;;-5.50;61.20;;;;;;4970802;28;46534;-63
2022/12/17 15:49:08;;;;;;;56.73;24.97;;;-5.50;61.40;;;;;;4971819;28;46636;-63
2022/12/17 15:51:33;;;;;;;46.30;23.23;;;-5.60;60.30;;;;;;4969736;28;46471;-63
2022/12/17 15:53:59;;;;;;;46.80;21.70;;;-5.60;61.20;;;;;;4969902;28;46426;-62
2022/12/17 15:56:27;;;;;;;47.80;22.40;;;-5.60;61.30;;;;;;4971703;28;46548;-62
2022/12/17 15:58:55;;;;;;;49.38;21.25;;;-5.50;61.00;;;;;;4967500;28;46644;-63
2022/12/17 16:01:21;;;;;;;48.58;21.10;;;-5.20;60.30;;;;;;4969483;28;46479;-63
2022/12/17 16:03:46;;;;;;;48.50;20.70;;;-5.00;60.00;;;;;;4970472;28;46409;-63
2022/12/17 16:06:12;;;;;;;48.17;22.37;;;-4.80;59.20;;;;;;4972599;28;46355;-63
2022/12/17 16:08:38;;;;;;;55.33;23.07;;;-4.60;58.80;;;;;;4969199;28;46372;-62
2022/12/17 16:11:09;;;;;;;47.22;21.98;;;-4.50;58.50;;;;;;4970314;28;46435;-62
2022/12/17 16:13:35;;;;;;;50.42;22.38;;;-4.30;58.30;;;;;;4969167;28;45862;-64
2022/12/17 16:16:01;;;;;;;50.22;21.27;;;-4.10;57.80;;;;;;4967086;28;49253;-63
2022/12/17 16:18:27;;;;;;;65.20;24.23;;;-4.00;57.70;;;;;;4970705;28;46459;-63
2022/12/17 16:20:53;;;;;;;52.23;22.67;;;-3.60;56.40;;;;;;4970617;28;46529;-63
2022/12/17 16:23:19;;;;;;;51.77;22.57;;;-3.60;57.30;;;;;;4972227;28;46517;-63
2022/12/17 16:25:55;;;;;;;54.15;22.92;;;-3.40;57.10;;;;;;4972593;28;46562;-63
2022/12/17 16:28:21;;;;;;;48.92;21.48;;;-3.20;57.30;;;;;;4969395;28;46538;-63
2022/12/17 16:31:00;;;;;;;44.07;20.10;;;-3.20;56.80;;;;;;4971943;28;46397;-63
2022/12/17 16:33:26;;;;;;;48.22;22.60;;;-3.20;57.90;;;;;;4973310;28;46412;-62
2022/12/17 16:35:53;;;;;;;50.57;22.57;;;-3.20;58.50;;;;;;4969169;28;46461;-62
2022/12/17 16:38:18;;;;;;;43.17;20.88;;;-3.20;59.10;;;;;;4971869;28;46066;-62
2022/12/17 16:40:45;;;;;;;57.70;25.90;;;-3.10;58.80;;;;;;4971802;28;45977;-63
2022/12/17 16:43:11;;;;;;;45.15;22.73;;;-3.10;59.80;;;;;;4970904;28;46400;-62
2022/12/17 16:45:46;;;;;;;53.27;26.33;;;-3.00;59.90;;;;;;4969513;28;46504;-61
2022/12/17 16:48:12;;;;;;;51.30;23.77;;;-3.00;59.80;;;;;;4970595;28;46691;-63
2022/12/17 16:50:37;;;;;;;45.80;22.77;;;-3.00;60.30;;;;;;4970350;28;46301;-62
2022/12/17 16:53:03;;;;;;;50.53;25.10;;;-3.00;60.00;;;;;;4968304;28;46665;-62
2022/12/17 16:55:28;;;;;;;56.03;26.27;;;-2.90;60.20;;;;;;4968788;28;47422;-64
2022/12/17 16:57:54;;;;;;;63.47;29.83;;;-2.90;60.30;;;;;;4968874;28;45903;-64
2022/12/17 17:00:20;;;;;;;52.33;25.33;;;-2.80;60.40;;;;;;4972024;28;46339;-63
2022/12/17 17:02:45;;;;;;;69.17;31.20;;;-2.80;60.50;;;;;;4967152;28;46512;-63
2022/12/17 17:05:11;;;;;;;65.67;32.27;;;-2.60;60.30;;;;;;4969932;28;46436;-64
2022/12/17 17:07:37;;;;;;;68.78;30.48;;;-2.60;60.30;;;;;;4968442;28;46432;-62
2022/12/17 17:10:03;;;;;;;60.23;29.90;;;-2.60;60.30;;;;;;4968229;28;46384;-65
2022/12/17 17:12:29;;;;;;;54.22;26.63;;;-2.50;60.20;;;;;;4974364;28;46463;-65
2022/12/17 17:14:54;;;;;;;57.30;27.17;;;-2.40;60.50;;;;;;4966909;28;46413;-65
2022/12/17 17:17:20;;;;;;;57.77;26.63;;;-2.50;60.50;;;;;;4968965;28;46319;-63
2022/12/17 17:19:46;;;;;;;54.57;26.03;;;-2.40;60.30;;;;;;4968733;28;46456;-66
2022/12/17 17:22:11;;;;;;;62.00;28.57;;;-2.40;60.30;;;;;;4967593;28;46337;-64
2022/12/17 17:24:37;;;;;;;59.30;27.37;;;-2.30;60.30;;;;;;4970422;28;46525;-64
2022/12/17 17:27:03;;;;;;;86.13;39.50;;;-2.20;60.00;;;;;;4969301;28;46390;-65
2022/12/17 17:29:28;;;;;;;57.07;29.30;;;-2.10;59.90;;;;;;4968427;28;46670;-65
2022/12/17 17:31:54;;;;;;;52.90;27.87;;;-1.90;60.00;;;;;;4968700;28;46409;-62
2022/12/17 17:34:20;;;;;;;52.90;26.27;;;-2.00;59.90;;;;;;4967899;28;46513;-66
2022/12/17 17:36:45;;;;;;;66.60;31.20;;;-2.00;59.90;;;;;;4970016;28;46486;-65
2022/12/17 17:39:14;;;;;;;69.93;30.10;;;-2.00;60.00;;;;;;4967136;28;46732;-66
2022/12/17 17:41:39;;;;;;;61.05;28.45;;;-2.00;60.20;;;;;;4971905;28;46484;-65
2022/12/17 17:44:11;;;;;;;55.63;27.00;;;-2.10;60.40;;;;;;4966816;28;46509;-65
2022/12/17 17:46:36;;;;;;;64.40;30.60;;;-2.10;60.60;;;;;;4967452;28;46429;-66
2022/12/17 17:49:04;;;;;;;60.10;27.87;;;-2.10;60.60;;;;;;4968667;28;46524;-65
2022/12/17 17:51:32;;;;;;;53.88;26.30;;;-2.10;60.60;;;;;;4966569;28;46643;-65
2022/12/17 17:54:00;;;;;;;59.30;27.85;;;-2.20;60.90;;;;;;4965829;28;46482;-65
2022/12/17 17:56:29;;;;;;;59.58;26.48;;;-2.10;60.50;;;;;;4973960;28;47121;-64
2022/12/17 17:58:58;;;;;;;61.40;25.90;;;-2.10;60.50;;;;;;4970784;28;46610;-65
2022/12/17 18:01:26;;;;;;;51.95;25.23;;;-2.10;60.70;;;;;;4969128;28;46677;-65
2022/12/17 18:03:55;;;;;;;64.00;26.35;;;-2.20;60.90;;;;;;4967059;28;46381;-64
2022/12/17 18:06:20;;;;;;;49.55;24.70;;;-2.20;60.60;;;;;;4969505;28;46919;-64
2022/12/17 18:08:46;;;;;;;55.70;26.47;;;-2.20;60.70;;;;;;4972906;28;46422;-64
2022/12/17 18:11:15;;;;;;;52.73;24.30;;;-2.10;60.50;;;;;;4974036;28;46666;-65
2022/12/17 18:13:54;;;;;;;117.68;45.63;;;-2.10;60.40;;;;;;4970687;28;46532;-64
2022/12/17 18:16:21;;;;;;;50.55;24.13;;;-2.00;60.40;;;;;;4972040;28;46590;-64
2022/12/17 18:18:47;;;;;;;60.03;27.63;;;-2.00;60.40;;;;;;4970930;28;45777;-65
2022/12/17 18:21:18;;;;;;;54.05;26.63;;;-2.10;60.60;;;;;;4970596;28;46838;-64
2022/12/17 18:23:45;;;;;;;58.25;27.00;;;-2.10;60.90;;;;;;4971074;28;46558;-63
2022/12/17 18:26:19;;;;;;;56.88;27.65;;;-2.10;61.10;;;;;;4973486;28;46379;-64
2022/12/17 18:28:46;;;;;;;60.60;27.75;;;-2.00;61.10;;;;;;4972738;28;46339;-64
2022/12/17 18:31:13;;;;;;;56.28;27.35;;;-2.00;61.10;;;;;;4970672;28;46834;-64
2022/12/17 18:33:42;;;;;;;58.35;27.58;;;-2.00;61.40;;;;;;4971576;28;47270;-63
2022/12/17 18:36:12;;;;;;;63.58;27.40;;;-2.10;61.60;;;;;;4969098;28;46007;-64
2022/12/17 18:38:39;;;;;;;49.90;26.15;;;-1.90;61.50;;;;;;4984422;28;46408;-64
2022/12/17 18:43:57;;;;;;;48.45;26.50;;;-2.00;61.60;;;;;;4968161;28;46694;-64
2022/12/17 18:46:23;;;;;;;50.63;23.98;;;-2.00;61.90;;;;;;4971611;28;46728;-64
2022/12/17 18:48:50;;;;;;;56.00;26.45;;;-2.00;62.10;;;;;;4970146;28;46646;-63
2022/12/17 18:51:16;;;;;;;54.22;24.95;;;-2.00;62.10;;;;;;4972106;28;46776;-64
2022/12/17 18:53:42;;;;;;;43.93;22.90;;;-2.00;62.10;;;;;;4969031;28;47350;-64
2022/12/17 18:56:09;;;;;;;56.60;27.27;;;-2.10;62.30;;;;;;4970680;28;46526;-64
2022/12/17 18:58:35;;;;;;;53.90;25.95;;;-2.10;62.30;;;;;;4972716;28;46670;-64
2022/12/17 19:01:00;;;;;;;53.33;24.00;;;-2.20;61.50;;;;;;4970009;28;45996;-64
2022/12/17 19:03:26;;;;;;;47.80;21.80;;;-2.10;62.70;;;;;;4968361;28;47506;-64
2022/12/17 19:05:52;;;;;;;46.43;24.20;;;-2.20;62.60;;;;;;4970258;28;46407;-64
2022/12/17 19:08:17;;;;;;;50.20;23.53;;;-2.30;61.80;;;;;;4970229;28;46371;-64
2022/12/17 19:10:43;;;;;;;41.00;21.13;;;-2.30;62.80;;;;;;4971342;28;46494;-64
2022/12/17 19:13:08;;;;;;;48.20;25.87;;;-2.30;61.80;;;;;;4973385;28;46509;-64
2022/12/17 19:15:34;;;;;;;52.63;24.37;;;-2.30;62.80;;;;;;4972067;28;46385;-64
2022/12/17 19:18:00;;;;;;;52.73;25.30;;;-2.20;62.60;;;;;;4972430;28;46374;-63
2022/12/17 19:20:25;;;;;;;50.30;24.90;;;-2.30;62.40;;;;;;4972882;28;46110;-63
2022/12/17 19:22:51;;;;;;;52.47;25.43;;;-2.30;62.60;;;;;;4970852;28;46389;-64
2022/12/17 19:25:17;;;;;;;50.07;24.03;;;-2.30;62.80;;;;;;4969421;28;46487;-64
2022/12/17 19:27:42;;;;;;;88.10;37.77;;;-2.40;63.10;;;;;;4970467;28;46382;-63
2022/12/17 19:30:09;;;;;;;51.70;24.30;;;-2.50;63.30;;;;;;4971261;28;46488;-64
2022/12/17 19:32:34;;;;;;;52.17;24.10;;;-2.50;63.40;;;;;;4973663;28;46704;-63
2022/12/17 19:35:00;;;;;;;54.63;24.57;;;-2.50;63.30;;;;;;4971670;28;46392;-64
2022/12/17 19:37:26;;;;;;;48.95;22.02;;;-2.50;63.40;;;;;;4972472;28;46330;-65
2022/12/17 19:39:52;;;;;;;40.17;19.60;;;-2.60;63.40;;;;;;4970893;28;45919;-64
2022/12/17 19:42:23;;;;;;;41.03;19.00;;;-2.70;63.50;;;;;;4969821;28;47710;-65
2022/12/17 19:44:54;;;;;;;47.53;21.83;;;-2.80;63.70;;;;;;4976543;28;46616;-64
2022/12/17 19:47:21;;;;;;;53.25;22.23;;;-2.80;64.00;;;;;;4969757;28;46363;-64
2022/12/17 19:49:46;;;;;;;57.15;24.63;;;-2.70;64.00;;;;;;4968416;28;46397;-63
2022/12/17 19:52:12;;;;;;;43.37;18.70;;;-2.70;63.90;;;;;;4973607;28;46490;-64
2022/12/17 19:54:38;;;;;;;40.47;18.90;;;-2.70;63.80;;;;;;4968977;28;46526;-64
2022/12/17 19:57:03;;;;;;;46.53;20.27;;;-3.00;63.70;;;;;;4968916;28;45897;-64
2022/12/17 19:59:29;;;;;;;50.53;20.77;;;-2.70;64.00;;;;;;4972115;28;46626;-64
2022/12/17 20:01:56;;;;;;;42.00;17.80;;;-2.70;63.90;;;;;;4970541;28;46364;-63
2022/12/17 20:04:22;;;;;;;33.65;15.02;;;-2.70;64.10;;;;;;4970891;28;46469;-63
2022/12/17 20:06:48;;;;;;;37.38;15.93;;;-2.70;64.10;;;;;;4969417;28;46273;-64
2022/12/17 20:09:16;;;;;;;42.67;16.10;;;-2.80;64.10;;;;;;4971459;28;46454;-64
2022/12/17 20:11:45;;;;;;;35.90;16.58;;;-2.70;64.10;;;;;;4984590;28;46428;-63
2022/12/17 20:14:14;;;;;;;42.45;17.90;;;-2.70;64.30;;;;;;4970838;28;46563;-64
2022/12/17 20:16:42;;;;;;;34.28;15.30;;;-2.80;64.20;;;;;;4970368;28;46587;-64
2022/12/17 20:19:11;;;;;;;36.20;15.77;;;-2.80;64.30;;;;;;4970480;28;46400;-63
2022/12/17 20:21:37;;;;;;;33.28;17.02;;;-2.80;64.40;;;;;;4968143;28;46459;-64
2022/12/17 20:24:03;;;;;;;34.17;15.40;;;-2.70;64.20;;;;;;4968196;28;46369;-64
2022/12/17 20:26:29;;;;;;;35.90;16.30;;;-2.60;64.00;;;;;;4970735;28;46349;-63
2022/12/17 20:28:54;;;;;;;36.73;17.80;;;-2.60;63.80;;;;;;4970189;28;45956;-64
2022/12/17 20:31:21;;;;;;;36.50;18.13;;;-2.50;63.80;;;;;;4969286;28;46142;-64
2022/12/17 20:33:46;;;;;;;40.13;19.50;;;-2.50;63.70;;;;;;4968964;28;46428;-64
2022/12/17 20:36:14;;;;;;;32.60;15.33;;;-2.50;63.50;;;;;;4969914;28;46555;-63
2022/12/17 20:38:41;;;;;;;32.15;14.55;;;-2.50;63.50;;;;;;4971713;28;45972;-64
2022/12/17 20:41:13;;;;;;;53.85;22.23;;;-2.50;63.50;;;;;;4967342;28;47420;-64
2022/12/17 20:43:39;;;;;;;33.08;13.40;;;-2.50;63.50;;;;;;4969497;28;46365;-64
2022/12/17 20:46:08;;;;;;;25.95;13.55;;;-2.50;63.60;;;;;;4983715;28;46442;-63
2022/12/17 20:48:34;;;;;;;34.42;16.30;;;-2.50;63.70;;;;;;4974477;28;46392;-63
2022/12/17 20:51:13;;;;;;;38.40;17.95;;;-2.50;62.90;;;;;;4976650;28;48392;-63
2022/12/17 20:53:39;;;;;;;31.50;13.45;;;-2.50;63.90;;;;;;4969202;28;46422;-64
2022/12/17 20:56:11;;;;;;;33.70;14.07;;;-2.40;63.90;;;;;;4968958;28;46467;-64
2022/12/17 20:58:38;;;;;;;35.78;16.60;;;-2.50;64.00;;;;;;4972431;28;46544;-65
2022/12/17 21:01:07;;;;;;;32.60;15.80;;;-2.50;63.50;;;;;;4969406;28;46472;-63
2022/12/17 21:03:34;;;;;;;28.55;14.15;;;-2.60;64.40;;;;;;4985541;28;46303;-64
2022/12/17 21:06:24;;;;;;;38.53;17.63;;;-2.60;64.40;;;;;;4967939;28;46356;-64
2022/12/17 21:08:50;;;;;;;36.15;15.85;;;-2.60;64.30;;;;;;4967524;28;46436;-65
2022/12/17 21:11:19;;;;;;;33.50;14.10;;;-2.60;64.30;;;;;;4987355;28;48649;-63
2022/12/17 21:13:45;;;;;;;50.40;19.60;;;-2.60;64.40;;;;;;4969545;28;46432;-64
2022/12/17 21:16:30;;;;;;;38.92;16.70;;;-2.70;64.60;;;;;;4975587;28;45960;-64
2022/12/17 21:19:00;;;;;;;46.25;19.45;;;-2.70;64.90;;;;;;4967584;28;46877;-64
2022/12/17 21:21:29;;;;;;;27.67;14.05;;;-2.70;65.10;;;;;;4984442;28;47971;-63
2022/12/17 21:23:56;;;;;;;32.50;15.63;;;-2.60;65.00;;;;;;4974301;28;46325;-64
2022/12/17 21:26:25;;;;;;;37.50;17.13;;;-2.60;64.70;;;;;;4970790;28;46541;-63
2022/12/17 21:28:53;;;;;;;40.13;16.92;;;-2.50;64.60;;;;;;4968482;28;46411;-64
2022/12/17 21:31:34;;;;;;;53.65;20.63;;;-2.50;64.40;;;;;;4968073;28;46508;-64
2022/12/17 21:34:03;;;;;;;71.65;29.05;;;-2.50;64.60;;;;;;4969735;28;46416;-64
2022/12/17 21:36:30;;;;;;;41.05;17.10;;;-2.50;64.60;;;;;;4967704;28;46885;-64
2022/12/17 21:38:57;;;;;;;53.28;22.23;;;-2.50;64.70;;;;;;4969078;28;46521;-64
2022/12/17 21:41:25;;;;;;;38.80;16.27;;;-2.50;64.50;;;;;;4968201;28;46447;-63
2022/12/17 21:43:52;;;;;;;37.00;17.75;;;-2.40;64.40;;;;;;4970093;28;46628;-64
2022/12/17 21:46:18;;;;;;;32.30;13.73;;;-2.50;64.60;;;;;;4966621;28;46445;-64
2022/12/17 21:48:44;;;;;;;28.40;13.50;;;-2.50;64.50;;;;;;4968836;28;46416;-64
2022/12/17 21:51:11;;;;;;;30.20;13.20;;;-2.40;64.20;;;;;;4969640;28;46510;-64
2022/12/17 21:53:40;;;;;;;33.22;13.70;;;-2.30;64.10;;;;;;4967399;28;46479;-64
2022/12/17 21:56:17;;;;;;;32.15;13.18;;;-2.30;64.20;;;;;;4969126;28;46468;-64
2022/12/17 21:58:44;;;;;;;33.50;14.75;;;-2.30;64.00;;;;;;4970500;28;45931;-64
2022/12/17 22:01:14;;;;;;;29.40;14.48;;;-2.30;64.00;;;;;;4970211;28;46409;-64
2022/12/17 22:03:40;;;;;;;27.80;13.00;;;-2.30;64.10;;;;;;4968343;28;46356;-63
2022/12/17 22:06:14;;;;;;;36.80;15.80;;;-2.30;63.90;;;;;;4969160;28;46473;-64
2022/12/17 22:08:41;;;;;;;26.58;13.32;;;-2.20;63.70;;;;;;4969887;28;46455;-63
2022/12/17 22:11:10;;;;;;;35.55;15.75;;;-2.20;63.70;;;;;;4967975;28;47677;-64
2022/12/17 22:16:26;;;;;;;39.35;15.38;;;-2.00;63.80;;;;;;4969745;28;46354;-63
2022/12/17 22:18:52;;;;;;;32.45;14.60;;;-2.10;63.50;;;;;;4967876;28;46385;-64
2022/12/17 22:21:18;;;;;;;26.33;12.52;;;-2.20;63.50;;;;;;4970359;28;47498;-66
2022/12/17 22:23:47;;;;;;;27.20;12.83;;;-2.30;63.50;;;;;;4964949;28;46336;-63
2022/12/17 22:26:18;;;;;;;24.38;12.00;;;-2.20;63.60;;;;;;4969549;28;46467;-63
2022/12/17 22:28:48;;;;;;;38.17;16.40;;;-2.20;63.50;;;;;;4968901;28;45965;-64
2022/12/17 22:34:00;;;;;;;32.22;13.82;;;-2.40;64.10;;;;;;4963417;28;46367;-64
2022/12/17 22:36:31;;;;;;;31.90;14.27;;;-2.50;64.30;;;;;;4969334;28;46367;-64
2022/12/17 22:39:00;;;;;;;28.67;13.57;;;-2.60;64.50;;;;;;4969327;28;46424;-64
2022/12/17 22:44:10;;;;;;;30.48;13.73;;;-2.70;64.60;;;;;;4967557;28;46377;-64
2022/12/17 22:46:36;;;;;;;25.50;12.23;;;-2.60;64.60;;;;;;4966243;28;46400;-63
2022/12/17 22:49:02;;;;;;;31.10;14.40;;;-2.60;64.40;;;;;;4969274;28;46714;-64
2022/12/17 22:51:27;;;;;;;23.70;11.80;;;-2.60;64.20;;;;;;4970461;28;46438;-64
2022/12/17 22:53:53;;;;;;;31.43;13.93;;;-2.60;64.10;;;;;;4969873;28;46609;-64
2022/12/17 22:56:19;;;;;;;27.17;11.70;;;-2.60;63.20;;;;;;4973089;28;46772;-64
2022/12/17 22:58:45;;;;;;;33.20;14.82;;;-2.50;64.30;;;;;;4973805;28;46704;-64
2022/12/17 23:01:12;;;;;;;26.13;13.55;;;-2.60;64.40;;;;;;4970614;28;47547;-64
2022/12/17 23:03:38;;;;;;;33.38;13.75;;;-2.60;64.30;;;;;;4974528;28;46337;-64
2022/12/17 23:06:12;;;;;;;31.75;14.68;;;-2.60;64.50;;;;;;4974124;28;45853;-64
2022/12/17 23:08:38;;;;;;;32.88;15.52;;;-2.50;64.20;;;;;;4972893;28;46496;-64
2022/12/17 23:11:09;;;;;;;28.15;14.07;;;-2.60;63.30;;;;;;4971679;28;46767;-64
2022/12/17 23:13:36;;;;;;;31.13;13.50;;;-2.70;64.10;;;;;;4970943;28;46332;-64
2022/12/17 23:16:02;;;;;;;26.67;13.63;;;-2.70;64.40;;;;;;4970439;28;45933;-65
2022/12/17 23:18:29;;;;;;;27.90;13.02;;;-2.70;64.50;;;;;;4974143;28;46368;-64
2022/12/17 23:20:55;;;;;;;31.65;14.15;;;-2.70;63.60;;;;;;4971067;28;46487;-64
2022/12/17 23:23:21;;;;;;;30.13;13.93;;;-2.70;64.60;;;;;;4971201;28;46419;-64
2022/12/17 23:25:47;;;;;;;28.13;14.52;;;-2.80;64.50;;;;;;4970852;28;46392;-65
2022/12/17 23:28:12;;;;;;;28.87;14.10;;;-2.80;64.70;;;;;;4971929;28;46379;-64
2022/12/17 23:30:38;;;;;;;38.90;14.63;;;-2.80;64.60;;;;;;4976438;28;48398;-64
2022/12/17 23:33:04;;;;;;;29.40;13.90;;;-2.90;64.70;;;;;;4969365;28;46704;-64
2022/12/17 23:35:29;;;;;;;34.37;14.23;;;-2.80;64.60;;;;;;4974156;28;46416;-64
2022/12/17 23:37:55;;;;;;;31.13;14.80;;;-2.80;64.70;;;;;;4972412;28;46296;-64
2022/12/17 23:40:21;;;;;;;28.53;12.63;;;-2.80;64.70;;;;;;4971872;28;46441;-64
2022/12/17 23:42:46;;;;;;;29.27;14.10;;;-2.70;64.60;;;;;;4971946;28;46455;-64
2022/12/17 23:45:12;;;;;;;28.07;14.37;;;-2.80;64.70;;;;;;4974926;28;46370;-64
2022/12/17 23:47:39;;;;;;;29.63;13.48;;;-2.90;64.80;;;;;;4970347;28;46415;-64
2022/12/17 23:50:07;;;;;;;28.48;11.40;;;-2.90;64.90;;;;;;4969205;28;46648;-64
2022/12/17 23:52:33;;;;;;;31.45;13.57;;;-3.00;64.90;;;;;;4970213;28;46378;-65
2022/12/17 23:54:58;;;;;;;30.07;13.87;;;-3.10;65.20;;;;;;4970579;28;46431;-64
2022/12/17 23:57:25;;;;;;;26.23;12.70;;;-3.10;65.40;;;;;;4970527;28;46296;-64
2022/12/17 23:59:50;;;;;;;27.45;13.38;;;-3.10;65.80;;;;;;4969535;28;48480;-65
